createdAt,value
2018-01-19T00:01:10.746Z,15.82
2018-01-19T00:03:38.324Z,27.65
2018-01-19T00:06:05.889Z,19.05
2018-01-19T00:08:33.449Z,19.90
2018-01-19T00:11:01.001Z,22.33
2018-01-19T00:13:28.582Z,31.17
2018-01-19T00:15:56.251Z,22.60
2018-01-19T00:18:24.699Z,18.70
2018-01-19T00:20:53.060Z,20.33
2018-01-19T00:23:20.645Z,15.75
2018-01-19T00:25:48.249Z,18.60
2018-01-19T00:28:16.918Z,20.35
2018-01-19T00:30:45.238Z,23.02
2018-01-19T00:33:12.764Z,24.73
2018-01-19T00:35:40.337Z,17.77
2018-01-19T00:38:07.882Z,18.67
2018-01-19T00:40:36.192Z,19.42
2018-01-19T00:43:03.734Z,20.83
2018-01-19T00:45:31.393Z,19.05
2018-01-19T00:47:58.954Z,18.27
2018-01-19T00:50:26.517Z,17.50
2018-01-19T00:52:54.071Z,17.42
2018-01-19T00:55:21.659Z,21.30
2018-01-19T00:57:49.209Z,27.42
2018-01-19T01:00:16.804Z,26.27
2018-01-19T01:02:45.308Z,18.70
2018-01-19T01:05:13.644Z,19.52
2018-01-19T01:07:41.216Z,21.23
2018-01-19T01:10:08.754Z,16.52
2018-01-19T01:12:36.363Z,17.00
2018-01-19T01:15:03.969Z,18.80
2018-01-19T01:17:31.523Z,25.75
2018-01-19T01:19:59.054Z,19.48
2018-01-19T01:22:27.380Z,22.30
2018-01-19T01:24:54.938Z,20.55
2018-01-19T01:27:22.558Z,20.15
2018-01-19T01:29:50.880Z,19.23
2018-01-19T01:32:18.515Z,14.90
2018-01-19T01:34:46.089Z,20.35
2018-01-19T01:37:13.692Z,16.50
2018-01-19T01:39:41.252Z,19.30
2018-01-19T01:42:08.811Z,29.30
2018-01-19T01:44:36.394Z,21.55
2018-01-19T01:47:03.941Z,17.50
2018-01-19T01:49:31.496Z,20.88
2018-01-19T01:51:59.098Z,23.20
2018-01-19T01:54:26.658Z,19.05
2018-01-19T01:56:54.214Z,18.40
2018-01-19T01:59:21.803Z,28.75
2018-01-19T02:01:49.867Z,19.20
2018-01-19T02:04:17.533Z,24.25
2018-01-19T02:06:45.149Z,25.67
2018-01-19T02:09:12.692Z,30.88
2018-01-19T02:11:40.310Z,20.55
2018-01-19T02:14:08.034Z,21.48
2018-01-19T02:16:36.355Z,22.90
2018-01-19T02:19:04.688Z,28.58
2018-01-19T02:21:33.064Z,26.65
2018-01-19T02:24:01.446Z,18.35
2018-01-19T02:26:29.132Z,24.85
2018-01-19T02:28:56.736Z,23.83
2018-01-19T02:31:24.330Z,25.48
2018-01-19T02:33:53.364Z,21.60
2018-01-19T02:36:20.936Z,21.08
2018-01-19T02:38:48.480Z,25.98
2018-01-19T02:41:16.051Z,30.10
2018-01-19T02:43:43.609Z,21.48
2018-01-19T02:46:11.175Z,26.62
2018-01-19T02:48:38.724Z,30.25
2018-01-19T02:51:06.282Z,26.87
2018-01-19T02:53:33.823Z,25.30
2018-01-19T02:56:01.365Z,24.05
2018-01-19T02:58:29.695Z,23.83
2018-01-19T03:00:57.227Z,23.17
2018-01-19T03:03:24.849Z,22.33
2018-01-19T03:05:52.440Z,31.27
2018-01-19T03:08:20.036Z,21.30
2018-01-19T03:10:47.568Z,20.35
2018-01-19T03:13:15.150Z,22.27
2018-01-19T03:15:42.681Z,23.35
2018-01-19T03:18:10.241Z,27.42
2018-01-19T03:20:37.839Z,23.75
2018-01-19T03:23:05.408Z,24.77
2018-01-19T03:25:32.942Z,22.33
2018-01-19T03:28:00.517Z,23.58
2018-01-19T03:30:28.113Z,23.40
2018-01-19T03:32:56.427Z,19.08
2018-01-19T03:35:24.444Z,28.85
2018-01-19T03:37:51.998Z,26.02
2018-01-19T03:40:19.541Z,26.98
2018-01-19T03:42:48.016Z,26.33
2018-01-19T03:45:15.600Z,23.50
2018-01-19T03:47:43.132Z,19.35
2018-01-19T03:50:10.681Z,18.33
2018-01-19T03:52:38.245Z,25.98
2018-01-19T03:55:05.796Z,17.90
2018-01-19T03:57:33.372Z,15.93
2018-01-19T04:00:00.900Z,18.58
2018-01-19T04:02:28.422Z,23.35
2018-01-19T04:04:56.805Z,14.48
2018-01-19T04:07:25.122Z,20.08
2018-01-19T04:09:52.755Z,14.23
2018-01-19T04:12:21.055Z,12.93
2018-01-19T04:14:48.612Z,11.40
2018-01-19T04:17:16.154Z,12.02
2018-01-19T04:19:43.817Z,9.88
2018-01-19T04:22:11.346Z,9.05
2018-01-19T04:24:38.877Z,9.52
2018-01-19T04:27:06.431Z,9.93
2018-01-19T04:29:33.979Z,9.23
2018-01-19T04:32:01.551Z,10.93
2018-01-19T04:34:29.189Z,9.40
2018-01-19T04:36:56.828Z,8.98
2018-01-19T04:39:24.401Z,12.77
2018-01-19T04:41:51.994Z,11.57
2018-01-19T04:44:19.538Z,9.93
2018-01-19T04:46:47.129Z,10.95
2018-01-19T04:49:15.474Z,11.85
2018-01-19T04:51:43.040Z,10.10
2018-01-19T04:54:10.607Z,10.07
2018-01-19T04:56:38.181Z,13.77
2018-01-19T04:59:05.727Z,10.80
2018-01-19T05:01:33.339Z,10.80
2018-01-19T05:04:01.022Z,10.77
2018-01-19T05:06:28.575Z,12.32
2018-01-19T05:08:56.185Z,14.52
2018-01-19T05:11:23.764Z,15.00
2018-01-19T05:13:51.360Z,11.77
2018-01-19T05:16:18.922Z,13.73
2018-01-19T05:18:46.512Z,11.55
2018-01-19T05:21:14.131Z,14.45
2018-01-19T05:23:41.659Z,15.30
2018-01-19T05:26:09.347Z,14.82
2018-01-19T05:28:36.983Z,16.12
2018-01-19T05:31:04.559Z,19.42
2018-01-19T05:33:32.878Z,17.48
2018-01-19T05:36:01.102Z,24.23
2018-01-19T05:38:28.792Z,20.15
2018-01-19T05:40:56.404Z,22.23
2018-01-19T05:43:23.929Z,21.58
2018-01-19T05:45:51.495Z,21.30
2018-01-19T05:48:19.116Z,20.65
2018-01-19T05:50:46.676Z,21.08
2018-01-19T05:53:15.024Z,25.30
2018-01-19T05:55:42.708Z,25.92
2018-01-19T05:58:10.273Z,25.27
2018-01-19T06:00:38.604Z,24.30
2018-01-19T06:03:06.179Z,25.95
2018-01-19T06:05:33.896Z,29.05
2018-01-19T06:08:01.541Z,29.08
2018-01-19T06:10:30.004Z,25.23
2018-01-19T06:12:58.360Z,27.77
2018-01-19T06:15:25.957Z,26.65
2018-01-19T06:17:54.283Z,26.50
2018-01-19T06:20:22.631Z,31.10
2018-01-19T06:22:50.210Z,35.25
2018-01-19T06:25:17.796Z,18.70
2018-01-19T06:27:45.453Z,31.08
2018-01-19T06:30:13.009Z,36.70
2018-01-19T06:32:40.627Z,30.12
2018-01-19T06:35:08.182Z,35.65
2018-01-19T06:37:35.715Z,34.83
2018-01-19T06:40:03.278Z,29.92
2018-01-19T06:42:30.852Z,33.33
2018-01-19T06:44:58.400Z,32.13
2018-01-19T06:47:26.640Z,35.30
2018-01-19T06:49:54.666Z,29.98
2018-01-19T06:52:22.986Z,28.50
2018-01-19T06:54:50.600Z,31.83
2018-01-19T06:57:18.967Z,27.62
2018-01-19T06:59:47.281Z,29.17
2018-01-19T07:02:14.889Z,28.02
2018-01-19T07:04:42.432Z,32.83
2018-01-19T07:07:11.298Z,28.60
2018-01-19T07:09:38.870Z,25.40
2018-01-19T07:12:06.439Z,29.98
2018-01-19T07:14:34.009Z,28.87
2018-01-19T07:17:02.347Z,28.60
2018-01-19T07:19:29.942Z,29.73
2018-01-19T07:21:57.509Z,25.83
2018-01-19T07:24:25.107Z,26.35
2018-01-19T07:26:53.432Z,28.50
2018-01-19T07:29:21.023Z,25.33
2018-01-19T07:31:49.471Z,23.85
2018-01-19T07:34:17.043Z,25.05
2018-01-19T07:39:19.585Z,23.40
2018-01-19T07:41:47.138Z,25.70
2018-01-19T07:44:14.810Z,22.37
2018-01-19T07:46:42.480Z,21.20
2018-01-19T07:49:10.037Z,25.83
2018-01-19T07:51:37.677Z,24.75
2018-01-19T07:54:06.002Z,25.10
2018-01-19T07:56:33.526Z,25.83
2018-01-19T07:59:01.050Z,23.27
2018-01-19T08:01:28.772Z,21.17
2018-01-19T08:03:56.741Z,26.62
2018-01-19T08:06:24.282Z,19.00
2018-01-19T08:08:52.844Z,25.25
2018-01-19T08:11:21.176Z,16.73
2018-01-19T08:13:48.774Z,21.35
2018-01-19T08:16:17.224Z,24.15
2018-01-19T08:18:44.818Z,17.70
2018-01-19T08:21:13.160Z,22.65
2018-01-19T08:23:40.738Z,25.45
2018-01-19T08:26:08.275Z,28.62
2018-01-19T08:28:35.782Z,24.30
2018-01-19T08:31:04.140Z,27.37
2018-01-19T08:33:32.495Z,28.67
2018-01-19T08:36:00.094Z,24.40
2018-01-19T08:38:28.451Z,28.00
2018-01-19T08:40:56.937Z,26.52
2018-01-19T08:43:24.493Z,28.92
2018-01-19T08:45:52.075Z,32.78
2018-01-19T08:48:19.639Z,33.50
2018-01-19T08:50:47.200Z,26.67
2018-01-19T08:53:15.368Z,27.52
2018-01-19T08:55:43.700Z,28.00
2018-01-19T08:58:11.796Z,25.95
2018-01-19T09:00:39.397Z,30.15
2018-01-19T09:03:06.980Z,27.15
2018-01-19T09:05:34.537Z,33.40
2018-01-19T09:08:02.113Z,25.37
2018-01-19T09:10:29.805Z,30.40
2018-01-19T09:12:57.449Z,24.42
2018-01-19T09:15:25.142Z,22.17
2018-01-19T09:17:52.780Z,26.27
2018-01-19T09:20:20.488Z,23.65
2018-01-19T09:22:48.453Z,20.40
2018-01-19T09:25:16.221Z,27.90
2018-01-19T09:27:43.784Z,26.75
2018-01-19T09:30:11.346Z,26.58
2018-01-19T09:32:38.937Z,24.20
2018-01-19T09:35:06.599Z,23.70
2018-01-19T09:37:34.219Z,22.52
2018-01-19T09:40:02.583Z,25.35
2018-01-19T09:42:30.702Z,19.60
2018-01-19T09:44:59.024Z,25.00
2018-01-19T09:47:26.583Z,22.25
2018-01-19T09:49:54.180Z,23.33
2018-01-19T09:52:21.817Z,49.85
2018-01-19T09:54:49.447Z,21.50
2018-01-19T09:57:17.019Z,20.05
2018-01-19T09:59:44.946Z,24.45
2018-01-19T10:02:12.496Z,21.08
2018-01-19T10:04:40.058Z,22.02
2018-01-19T10:07:08.409Z,20.00
2018-01-19T10:09:35.984Z,20.35
2018-01-19T10:12:03.514Z,19.10
2018-01-19T10:14:31.098Z,19.60
2018-01-19T10:16:58.658Z,16.77
2018-01-19T10:19:26.237Z,21.92
2018-01-19T10:21:54.600Z,16.08
2018-01-19T10:24:22.136Z,14.82
2018-01-19T10:26:49.694Z,19.92
2018-01-19T10:29:17.240Z,17.00
2018-01-19T10:31:44.829Z,11.65
2018-01-19T10:34:12.373Z,19.55
2018-01-19T10:36:39.959Z,16.15
2018-01-19T10:39:08.499Z,21.02
2018-01-19T10:41:36.035Z,26.08
2018-01-19T10:44:03.635Z,17.90
2018-01-19T10:46:31.160Z,18.67
2018-01-19T10:48:59.395Z,14.77
2018-01-19T10:51:27.869Z,19.75
2018-01-19T10:53:55.398Z,11.52
2018-01-19T10:56:22.963Z,22.85
2018-01-19T10:58:50.564Z,25.23
2018-01-19T11:01:18.888Z,19.15
2018-01-19T11:03:46.507Z,16.70
2018-01-19T11:06:14.087Z,17.33
2018-01-19T11:08:41.651Z,36.78
2018-01-19T11:11:09.235Z,38.10
2018-01-19T11:13:36.814Z,29.37
2018-01-19T11:16:04.364Z,55.63
2018-01-19T11:18:31.954Z,11.65
2018-01-19T11:20:59.749Z,15.50
2018-01-19T11:23:27.364Z,17.25
2018-01-19T11:25:55.323Z,19.80
2018-01-19T11:28:22.968Z,11.85
2018-01-19T11:30:50.606Z,26.70
2018-01-19T11:33:18.153Z,10.60
2018-01-19T11:35:46.522Z,14.05
2018-01-19T11:38:14.091Z,16.30
2018-01-19T11:40:41.710Z,13.07
2018-01-19T11:43:10.070Z,19.35
2018-01-19T11:45:38.389Z,13.35
2018-01-19T11:48:05.929Z,12.95
2018-01-19T11:50:33.483Z,10.27
2018-01-19T11:53:01.860Z,6.95
2018-01-19T11:55:30.239Z,9.25
2018-01-19T11:57:58.556Z,16.37
2018-01-19T12:00:26.155Z,13.62
2018-01-19T12:02:54.161Z,7.45
2018-01-19T12:05:21.744Z,9.48
2018-01-19T12:07:49.337Z,16.58
2018-01-19T12:10:16.952Z,14.25
2018-01-19T12:12:44.528Z,14.13
2018-01-19T12:15:12.251Z,20.55
2018-01-19T12:17:39.809Z,20.95
2018-01-19T12:20:07.400Z,8.88
2018-01-19T12:22:34.968Z,15.77
2018-01-19T12:25:03.262Z,16.62
2018-01-19T12:27:30.937Z,13.80
2018-01-19T12:29:58.486Z,18.00
2018-01-19T12:32:26.081Z,11.32
2018-01-19T12:34:53.660Z,16.40
2018-01-19T12:37:21.464Z,11.63
2018-01-19T12:39:49.051Z,23.52
2018-01-19T12:42:16.614Z,15.75
2018-01-19T12:44:44.413Z,15.80
2018-01-19T12:47:11.989Z,15.48
2018-01-19T12:49:39.761Z,13.90
2018-01-19T12:52:07.333Z,23.87
2018-01-19T12:54:34.898Z,10.98
2018-01-19T12:57:02.494Z,24.00
2018-01-19T12:59:30.876Z,20.27
2018-01-19T13:01:58.471Z,11.12
2018-01-19T13:04:26.193Z,14.30
2018-01-19T13:06:54.534Z,16.87
2018-01-19T13:09:22.126Z,17.35
2018-01-19T13:11:49.764Z,14.75
2018-01-19T13:14:17.362Z,10.90
2018-01-19T13:16:45.694Z,17.40
2018-01-19T13:19:13.294Z,18.37
2018-01-19T13:21:40.887Z,16.23
2018-01-19T13:24:08.458Z,16.67
2018-01-19T13:26:36.094Z,12.95
2018-01-19T13:29:03.765Z,16.58
2018-01-19T13:31:31.326Z,14.50
2018-01-19T13:33:59.339Z,10.90
2018-01-19T13:36:26.985Z,27.83
2018-01-19T13:38:54.496Z,18.10
2018-01-19T13:41:22.119Z,30.58
2018-01-19T13:43:49.787Z,14.68
2018-01-19T13:46:17.427Z,11.85
2018-01-19T13:48:45.044Z,16.45
2018-01-19T13:51:12.611Z,21.42
2018-01-19T13:53:40.261Z,16.75
2018-01-19T13:56:07.816Z,13.52
2018-01-19T13:58:35.367Z,10.07
2018-01-19T14:01:02.985Z,28.30
2018-01-19T14:03:30.546Z,22.55
2018-01-19T14:05:58.107Z,16.30
2018-01-19T14:08:25.666Z,13.50
2018-01-19T14:10:53.261Z,11.90
2018-01-19T14:13:21.857Z,16.00
2018-01-19T14:15:50.221Z,7.10
2018-01-19T14:18:17.788Z,15.68
2018-01-19T14:20:45.956Z,7.10
2018-01-19T14:23:13.551Z,8.75
2018-01-19T14:25:41.133Z,14.82
2018-01-19T14:28:08.713Z,12.70
2018-01-19T14:30:36.404Z,10.18
2018-01-19T14:33:04.728Z,16.10
2018-01-19T14:35:32.308Z,8.52
2018-01-19T14:38:00.618Z,8.48
2018-01-19T14:40:29.094Z,14.15
2018-01-19T14:42:56.731Z,13.85
2018-01-19T14:45:24.299Z,12.07
2018-01-19T14:47:51.884Z,16.30
2018-01-19T14:50:20.247Z,14.73
2018-01-19T14:52:47.794Z,13.25
2018-01-19T14:55:15.391Z,10.35
2018-01-19T14:57:43.117Z,8.32
2018-01-19T15:00:10.916Z,11.57
2018-01-19T15:02:39.216Z,14.85
2018-01-19T15:05:06.761Z,9.55
2018-01-19T15:07:35.082Z,13.48
2018-01-19T15:10:02.677Z,10.93
2018-01-19T15:12:30.212Z,15.38
2018-01-19T15:14:57.758Z,7.00
2018-01-19T15:17:25.319Z,8.65
2018-01-19T15:19:52.874Z,9.70
2018-01-19T15:22:20.401Z,15.35
2018-01-19T15:24:47.967Z,10.32
2018-01-19T15:27:15.523Z,9.52
2018-01-19T15:29:43.822Z,8.75
2018-01-19T15:32:11.393Z,15.15
2018-01-19T15:34:38.945Z,12.00
2018-01-19T15:37:06.505Z,10.18
2018-01-19T15:39:34.046Z,8.65
2018-01-19T15:42:01.583Z,9.43
2018-01-19T15:44:29.151Z,12.93
2018-01-19T15:46:57.456Z,15.68
2018-01-19T15:49:24.987Z,14.60
2018-01-19T15:51:53.328Z,13.02
2018-01-19T15:54:20.900Z,6.82
2018-01-19T15:56:48.449Z,10.23
2018-01-19T15:59:16.029Z,9.95
2018-01-19T16:01:44.347Z,7.35
2018-01-19T16:04:11.902Z,9.75
2018-01-19T16:06:39.470Z,11.00
2018-01-19T16:09:06.972Z,14.02
2018-01-19T16:11:34.588Z,14.15
2018-01-19T16:14:02.189Z,7.37
2018-01-19T16:16:29.744Z,9.02
2018-01-19T16:18:57.298Z,8.20
2018-01-19T16:21:24.919Z,11.02
2018-01-19T16:23:52.466Z,9.70
2018-01-19T16:26:20.779Z,11.35
2018-01-19T16:28:48.352Z,9.00
2018-01-19T16:31:15.936Z,9.57
2018-01-19T16:33:43.540Z,12.32
2018-01-19T16:36:11.090Z,10.77
2018-01-19T16:38:38.641Z,11.48
2018-01-19T16:41:06.195Z,22.23
2018-01-19T16:43:34.611Z,6.87
2018-01-19T16:46:02.197Z,9.02
2018-01-19T16:48:29.721Z,7.93
2018-01-19T16:50:57.280Z,3.72
2018-01-19T16:53:24.813Z,3.58
2018-01-19T16:55:52.350Z,4.53
2018-01-19T16:58:20.167Z,4.05
2018-01-19T17:00:47.750Z,4.25
2018-01-19T17:03:15.278Z,14.15
2018-01-19T17:05:42.850Z,5.75
2018-01-19T17:08:10.504Z,13.27
2018-01-19T17:10:38.092Z,4.55
2018-01-19T17:13:05.628Z,3.90
2018-01-19T17:15:33.177Z,6.37
2018-01-19T17:18:00.741Z,6.62
2018-01-19T17:20:28.317Z,10.43
2018-01-19T17:22:55.888Z,4.43
2018-01-19T17:25:23.449Z,5.35
2018-01-19T17:27:51.059Z,7.30
2018-01-19T17:30:18.708Z,11.82
2018-01-19T17:32:46.305Z,8.88
2018-01-19T17:35:13.861Z,6.12
2018-01-19T17:37:41.426Z,3.65
2018-01-19T17:40:08.995Z,11.80
2018-01-19T17:42:36.644Z,5.62
2018-01-19T17:45:04.153Z,9.98
2018-01-19T17:47:33.378Z,6.90
2018-01-19T17:50:00.928Z,11.30
2018-01-19T17:52:28.492Z,7.10
2018-01-19T17:54:56.031Z,7.85
2018-01-19T17:57:24.425Z,9.88
2018-01-19T17:59:51.952Z,7.72
2018-01-19T18:02:19.481Z,13.75
2018-01-19T18:04:47.041Z,11.27
2018-01-19T18:07:14.583Z,10.93
2018-01-19T18:09:42.164Z,8.82
2018-01-19T18:12:09.769Z,10.95
2018-01-19T18:14:37.317Z,5.30
2018-01-19T18:17:05.636Z,9.20
2018-01-19T18:19:33.320Z,5.87
2018-01-19T18:22:00.900Z,8.80
2018-01-19T18:24:29.290Z,5.57
2018-01-19T18:26:56.831Z,5.43
2018-01-19T18:29:24.358Z,5.70
2018-01-19T18:31:51.919Z,18.75
2018-01-19T18:34:19.507Z,9.23
2018-01-19T18:36:47.831Z,9.93
2018-01-19T18:39:15.362Z,6.62
2018-01-19T18:41:43.662Z,12.02
2018-01-19T18:44:11.308Z,6.25
2018-01-19T18:46:39.622Z,11.73
2018-01-19T18:49:07.191Z,15.10
2018-01-19T18:51:34.740Z,11.55
2018-01-19T18:54:02.268Z,9.52
2018-01-19T18:56:29.880Z,10.70
2018-01-19T18:58:57.655Z,10.48
2018-01-19T19:01:25.244Z,11.70
2018-01-19T19:03:53.564Z,14.00
2018-01-19T19:06:21.125Z,17.80
2018-01-19T19:08:48.656Z,11.43
2018-01-19T19:11:16.439Z,11.35
2018-01-19T19:13:44.011Z,12.32
2018-01-19T19:16:11.530Z,16.10
2018-01-19T19:18:39.870Z,14.13
2018-01-19T19:21:07.418Z,13.80
2018-01-19T19:23:35.214Z,16.65
2018-01-19T19:26:02.910Z,13.20
2018-01-19T19:28:30.473Z,14.82
2018-01-19T19:30:58.023Z,18.17
2018-01-19T19:33:25.619Z,14.87
2018-01-19T19:35:53.186Z,14.70
2018-01-19T19:38:20.697Z,15.82
2018-01-19T19:40:48.259Z,17.42
2018-01-19T19:43:15.797Z,14.50
2018-01-19T19:45:43.522Z,13.27
2018-01-19T19:48:11.124Z,15.30
2018-01-19T19:50:39.438Z,16.98
2018-01-19T19:53:06.999Z,13.15
2018-01-19T19:55:34.585Z,14.45
2018-01-19T19:58:02.129Z,10.65
2018-01-19T20:00:29.666Z,16.17
2018-01-19T20:02:57.206Z,15.73
2018-01-19T20:05:24.750Z,12.05
2018-01-19T20:07:52.382Z,16.55
2018-01-19T20:10:21.614Z,12.57
2018-01-19T20:12:49.922Z,10.98
2018-01-19T20:15:17.568Z,11.80
2018-01-19T20:17:45.209Z,10.95
2018-01-19T20:20:13.552Z,13.90
2018-01-19T20:22:41.123Z,9.80
2018-01-19T20:25:09.458Z,14.70
2018-01-19T20:30:10.858Z,13.85
2018-01-19T20:32:38.597Z,13.30
2018-01-19T20:35:06.166Z,14.40
2018-01-19T20:37:33.756Z,9.80
2018-01-19T20:40:01.278Z,20.42
2018-01-19T20:42:28.834Z,11.73
2018-01-19T20:44:56.450Z,12.30
2018-01-19T20:47:24.011Z,12.02
2018-01-19T20:49:52.364Z,14.07
2018-01-19T20:52:19.902Z,14.98
2018-01-19T20:54:47.456Z,14.55
2018-01-19T20:57:14.994Z,18.15
2018-01-19T20:59:42.551Z,15.98
2018-01-19T21:02:10.086Z,15.40
2018-01-19T21:04:37.649Z,20.27
2018-01-19T21:07:05.990Z,22.23
2018-01-19T21:09:34.400Z,21.85
2018-01-19T21:12:02.703Z,25.90
2018-01-19T21:14:30.288Z,23.87
2018-01-19T21:16:57.849Z,20.40
2018-01-19T21:19:25.418Z,24.65
2018-01-19T21:21:52.974Z,24.23
2018-01-19T21:24:20.590Z,20.12
2018-01-19T21:26:48.950Z,23.85
2018-01-19T21:29:16.481Z,25.02
2018-01-19T21:31:44.792Z,22.40
2018-01-19T21:34:13.140Z,18.30
2018-01-19T21:36:40.873Z,32.90
2018-01-19T21:39:08.419Z,38.50
2018-01-19T21:41:35.986Z,29.35
2018-01-19T21:44:03.667Z,28.90
2018-01-19T21:46:31.231Z,27.80
2018-01-19T21:48:59.769Z,27.33
2018-01-19T21:51:27.394Z,32.88
2018-01-19T21:53:55.694Z,24.87
2018-01-19T21:56:23.227Z,29.50
2018-01-19T21:58:50.758Z,25.08
2018-01-19T22:01:18.293Z,33.53
2018-01-19T22:03:46.647Z,45.78
2018-01-19T22:06:14.972Z,34.88
2018-01-19T22:08:42.530Z,38.00
2018-01-19T22:11:10.089Z,33.13
2018-01-19T22:13:37.792Z,37.45
2018-01-19T22:16:05.423Z,31.48
2018-01-19T22:18:32.979Z,38.63
2018-01-19T22:21:01.401Z,37.60
2018-01-19T22:23:29.174Z,36.60
2018-01-19T22:25:56.718Z,37.20
2018-01-19T22:28:24.265Z,33.95
2018-01-19T22:30:51.832Z,31.98
2018-01-19T22:33:19.413Z,26.37
2018-01-19T22:35:46.965Z,34.05
2018-01-19T22:38:14.495Z,33.38
2018-01-19T22:40:43.550Z,29.77
2018-01-19T22:43:11.927Z,29.30
2018-01-19T22:45:40.290Z,20.15
2018-01-19T22:48:07.841Z,32.45
2018-01-19T22:50:35.405Z,27.25
2018-01-19T22:53:02.991Z,30.48
2018-01-19T22:55:31.366Z,29.52
2018-01-19T22:57:58.978Z,29.77
2018-01-19T23:00:26.505Z,26.08
2018-01-19T23:02:54.066Z,24.70
2018-01-19T23:05:21.609Z,24.58
2018-01-19T23:07:49.924Z,25.12
2018-01-19T23:10:17.488Z,23.30
2018-01-19T23:12:45.036Z,31.45
2018-01-19T23:15:12.592Z,32.35
2018-01-19T23:17:40.212Z,26.20
2018-01-19T23:20:07.797Z,33.33
2018-01-19T23:22:36.982Z,25.37
2018-01-19T23:25:04.564Z,23.25
2018-01-19T23:27:32.099Z,25.50
2018-01-19T23:29:59.650Z,22.27
2018-01-19T23:32:27.204Z,26.40
2018-01-19T23:34:54.823Z,30.20
2018-01-19T23:37:22.360Z,27.33
2018-01-19T23:39:50.667Z,25.17
2018-01-19T23:42:18.217Z,24.60
2018-01-19T23:44:45.776Z,26.12
2018-01-19T23:47:13.364Z,22.92
2018-01-19T23:49:40.889Z,26.80
2018-01-19T23:52:08.528Z,25.50
2018-01-19T23:54:36.821Z,26.37
2018-01-19T23:57:14.268Z,19.75
2018-01-19T23:59:41.836Z,23.23
